Altus, Oklahoma
Current Conditions -  °F | °C
As of 7:37 AM on Friday 19 Dec 2014 (Local Time) from KLTS Reporting Station
Light Rain Light Rain  
Wind Chill: 34°   Ceiling: 600
Heat Index: 39°   Visibility: 8mi
Dew Point: 39°   Wind: 8mph
Humidity: 100%   Direction: 50°NE
Pressure: 30.21"   Gusts: NA
Location:  34.64°N, 99.33°W
Report Text: KLTS 191337Z AUTO 05007KT 8SM R35L/5500FT -RA OVC006 04/04 A3021 RMK AO2
Loading
Personal Weather Stations






























Interactive Weather Map New forecast layout! Learn more

10-Day Weather Forecast

Advertisements
Track Severe Weather on mobile